createdAt,value
2023-11-01T00:01:30.707Z,10.18
2023-11-01T00:03:58.595Z,10.32
2023-11-01T00:06:27.740Z,10.20
2023-11-01T00:08:56.717Z,10.15
2023-11-01T00:11:24.853Z,10.23
2023-11-01T00:13:52.622Z,10.13
2023-11-01T00:16:20.496Z,10.11
2023-11-01T00:18:48.225Z,10.16
2023-11-01T00:21:16.211Z,10.35
2023-11-01T00:23:45.421Z,10.19
2023-11-01T00:26:13.218Z,10.26
2023-11-01T00:28:40.997Z,10.31
2023-11-01T00:31:09.075Z,10.31
2023-11-01T00:33:37.484Z,10.27
2023-11-01T00:36:06.166Z,10.23
2023-11-01T00:38:36.788Z,10.20
2023-11-01T00:41:06.721Z,10.16
2023-11-01T00:43:34.630Z,10.02
2023-11-01T00:46:03.361Z,10.06
2023-11-01T00:48:31.227Z,9.93
2023-11-01T00:51:01.383Z,10.03
2023-11-01T00:53:32.272Z,10.01
2023-11-01T00:56:00.159Z,10.12
2023-11-01T00:58:29.196Z,10.05
2023-11-01T01:00:56.913Z,10.07
2023-11-01T01:03:24.864Z,10.09
2023-11-01T01:05:52.669Z,10.14
2023-11-01T01:08:20.462Z,10.24
2023-11-01T01:10:48.527Z,10.14
2023-11-01T01:13:16.718Z,10.23
2023-11-01T01:15:45.876Z,10.21
2023-11-01T01:18:15.753Z,10.27
2023-11-01T01:20:43.609Z,10.43
2023-11-01T01:23:11.437Z,10.43
2023-11-01T01:25:39.132Z,10.44
2023-11-01T01:28:06.946Z,10.53
2023-11-01T01:30:34.733Z,10.47
2023-11-01T01:33:03.991Z,10.58
2023-11-01T01:35:32.153Z,10.40
2023-11-01T01:38:00.049Z,10.49
2023-11-01T01:40:28.067Z,10.53
2023-11-01T01:42:55.905Z,10.51
2023-11-01T01:45:23.754Z,10.53
2023-11-01T01:47:51.557Z,10.53
2023-11-01T01:50:22.384Z,10.42
2023-11-01T01:52:53.097Z,10.42
2023-11-01T01:55:20.705Z,10.34
2023-11-01T01:57:48.412Z,10.26
2023-11-01T02:00:17.300Z,10.33
2023-11-01T02:02:45.274Z,10.41
2023-11-01T02:05:15.638Z,10.47
2023-11-01T02:07:45.619Z,10.48
2023-11-01T02:10:15.287Z,10.55
2023-11-01T02:12:42.955Z,10.53
2023-11-01T02:15:10.910Z,10.64
2023-11-01T02:17:40.690Z,10.54
2023-11-01T02:20:11.761Z,10.37
2023-11-01T02:22:40.039Z,10.50
2023-11-01T02:25:09.949Z,10.58
2023-11-01T02:27:37.850Z,10.65
2023-11-01T02:30:06.288Z,10.64
2023-11-01T02:32:36.518Z,10.70
2023-11-01T02:35:06.238Z,10.71
2023-11-01T02:37:37.073Z,10.74
2023-11-01T02:40:05.050Z,10.78
2023-11-01T02:42:34.169Z,10.76
2023-11-01T02:45:01.840Z,10.70
2023-11-01T02:47:31.982Z,10.73
2023-11-01T02:49:59.572Z,10.78
2023-11-01T02:52:27.210Z,10.85
2023-11-01T02:54:54.976Z,10.81
2023-11-01T02:57:24.740Z,10.92
2023-11-01T02:59:54.733Z,10.87
2023-11-01T03:02:22.360Z,10.88
2023-11-01T03:04:49.968Z,10.84
2023-11-01T03:07:17.520Z,10.84
2023-11-01T03:09:45.251Z,10.80
2023-11-01T03:12:12.899Z,10.88
2023-11-01T03:14:40.587Z,10.92
2023-11-01T03:17:10.830Z,10.99
2023-11-01T03:19:39.165Z,11.02
2023-11-01T03:22:07.191Z,10.97
2023-11-01T03:24:35.360Z,10.98
2023-11-01T03:27:02.983Z,10.86
2023-11-01T03:29:31.151Z,10.94
2023-11-01T03:31:58.801Z,10.97
2023-11-01T03:34:27.772Z,10.99
2023-11-01T03:36:55.356Z,10.92
2023-11-01T03:39:22.935Z,11.02
2023-11-01T03:41:50.549Z,10.98
2023-11-01T03:44:20.797Z,10.99
2023-11-01T03:46:48.690Z,10.96
2023-11-01T03:49:18.523Z,10.84
2023-11-01T03:51:47.490Z,10.96
2023-11-01T03:54:15.047Z,10.96
2023-11-01T03:56:45.680Z,11.05
2023-11-01T03:59:13.545Z,11.00
2023-11-01T04:01:41.256Z,10.93
2023-11-01T04:04:09.196Z,10.95
2023-11-01T04:06:38.454Z,10.97
2023-11-01T04:09:08.794Z,11.02
2023-11-01T04:11:39.156Z,10.96
2023-11-01T04:14:08.117Z,11.05
2023-11-01T04:16:38.196Z,11.15
2023-11-01T04:19:07.162Z,11.13
2023-11-01T04:21:34.866Z,10.97
2023-11-01T04:24:10.828Z,10.97
2023-11-01T04:26:40.519Z,10.90
2023-11-01T04:29:08.426Z,10.98
2023-11-01T04:31:36.075Z,10.97
2023-11-01T04:34:04.085Z,10.88
2023-11-01T04:36:31.892Z,10.91
2023-11-01T04:38:59.837Z,11.00
2023-11-01T04:41:29.572Z,10.83
2023-11-01T04:43:57.318Z,10.83
2023-11-01T04:46:25.131Z,10.79
2023-11-01T04:48:52.819Z,10.74
2023-11-01T04:51:20.733Z,10.75
2023-11-01T04:53:49.466Z,10.88
2023-11-01T04:56:17.145Z,10.77
2023-11-01T04:58:46.074Z,10.74
2023-11-01T05:01:14.295Z,10.91
2023-11-01T05:03:42.001Z,10.90
2023-11-01T05:06:10.201Z,10.88
2023-11-01T05:08:37.825Z,10.96
2023-11-01T05:11:06.425Z,11.01
2023-11-01T05:13:34.178Z,11.06
2023-11-01T05:16:03.159Z,11.03
2023-11-01T05:18:30.779Z,11.03
2023-11-01T05:20:58.413Z,11.04
2023-11-01T05:23:26.035Z,11.04
2023-11-01T05:25:53.673Z,11.10
2023-11-01T05:28:21.272Z,11.15
2023-11-01T05:30:48.909Z,11.05
2023-11-01T05:33:20.749Z,10.84
2023-11-01T05:35:49.738Z,10.94
2023-11-01T05:38:17.321Z,10.98
2023-11-01T05:40:44.989Z,10.95
2023-11-01T05:43:12.623Z,10.90
2023-11-01T05:45:40.174Z,10.93
2023-11-01T05:48:09.980Z,11.08
2023-11-01T05:50:41.850Z,11.19
2023-11-01T05:53:11.810Z,11.17
2023-11-01T05:55:54.242Z,11.21
2023-11-01T05:58:27.629Z,11.23
2023-11-01T06:00:55.498Z,11.17
2023-11-01T06:03:26.229Z,11.21
2023-11-01T06:05:59.167Z,11.23
2023-11-01T06:08:27.687Z,11.15
2023-11-01T06:10:55.797Z,11.16
2023-11-01T06:13:23.469Z,11.19
2023-11-01T06:15:52.753Z,11.23
2023-11-01T06:18:22.011Z,11.33
2023-11-01T06:20:49.688Z,11.41
2023-11-01T06:23:18.811Z,11.33
2023-11-01T06:25:46.528Z,11.38
2023-11-01T06:28:14.140Z,11.35
2023-11-01T06:30:42.026Z,11.34
2023-11-01T06:33:10.071Z,11.38
2023-11-01T06:35:38.383Z,11.37
2023-11-01T06:38:06.141Z,11.22
2023-11-01T06:40:35.371Z,11.15
2023-11-01T06:43:02.995Z,11.26
2023-11-01T06:45:30.656Z,11.36
2023-11-01T06:47:58.362Z,11.36
2023-11-01T06:50:26.058Z,11.41
2023-11-01T06:52:53.637Z,11.36
2023-11-01T06:55:21.272Z,11.26
2023-11-01T06:57:50.239Z,11.24
2023-11-01T07:00:17.927Z,11.26
2023-11-01T07:02:45.622Z,11.30
2023-11-01T07:05:13.292Z,11.32
2023-11-01T07:07:40.882Z,11.29
2023-11-01T07:10:11.449Z,11.42
2023-11-01T07:12:39.267Z,11.43
2023-11-01T07:15:11.148Z,11.23
2023-11-01T07:17:38.877Z,11.26
2023-11-01T07:20:07.840Z,11.26
2023-11-01T07:22:35.473Z,11.22
2023-11-01T07:25:03.242Z,11.24
2023-11-01T07:27:31.045Z,11.23
2023-11-01T07:29:58.877Z,11.14
2023-11-01T07:32:27.855Z,11.19
2023-11-01T07:34:55.478Z,11.24
2023-11-01T07:37:23.120Z,11.33
2023-11-01T07:39:50.725Z,11.09
2023-11-01T07:42:18.433Z,11.22
2023-11-01T07:44:46.223Z,11.17
2023-11-01T07:47:14.735Z,11.14
2023-11-01T07:49:43.796Z,11.30
2023-11-01T07:52:11.500Z,11.12
2023-11-01T07:54:39.091Z,11.23
2023-11-01T07:57:07.178Z,11.15
2023-11-01T07:59:34.954Z,11.09
2023-11-01T08:02:02.648Z,11.18
2023-11-01T08:04:30.658Z,11.06
2023-11-01T08:06:59.697Z,11.09
2023-11-01T08:09:27.640Z,11.07
2023-11-01T08:11:55.276Z,11.27
2023-11-01T08:14:22.879Z,11.16
2023-11-01T08:16:50.557Z,11.19
2023-11-01T08:19:18.246Z,11.30
2023-11-01T08:21:45.810Z,11.36
2023-11-01T08:24:14.825Z,11.44
2023-11-01T08:26:42.467Z,11.44
2023-11-01T08:29:10.968Z,11.61
2023-11-01T08:31:38.692Z,11.51
2023-11-01T08:34:06.422Z,11.49
2023-11-01T08:36:34.113Z,11.59
2023-11-01T08:39:01.716Z,11.39
2023-11-01T08:41:30.760Z,11.38
2023-11-01T08:43:58.415Z,11.49
2023-11-01T08:46:26.074Z,11.49
2023-11-01T08:48:53.677Z,11.53
2023-11-01T08:51:21.280Z,11.47
2023-11-01T08:53:48.970Z,11.40
2023-11-01T08:56:16.712Z,11.43
2023-11-01T08:58:45.678Z,11.41
2023-11-01T09:01:13.828Z,11.28
2023-11-01T09:03:41.572Z,11.27
2023-11-01T09:06:10.120Z,11.20
2023-11-01T09:08:37.892Z,11.32
2023-11-01T09:11:06.130Z,11.33
2023-11-01T09:13:33.764Z,11.54
2023-11-01T09:16:02.715Z,11.51
2023-11-01T09:18:30.443Z,11.40
2023-11-01T09:20:58.162Z,11.57
2023-11-01T09:23:25.846Z,11.48
2023-11-01T09:25:53.488Z,11.39
2023-11-01T09:28:21.102Z,11.44
2023-11-01T09:30:48.676Z,11.66
2023-11-01T09:33:17.664Z,11.50
2023-11-01T09:35:45.339Z,11.57
2023-11-01T09:38:12.998Z,11.71
2023-11-01T09:40:40.583Z,11.61
2023-11-01T09:43:09.579Z,11.73
2023-11-01T09:45:38.017Z,11.71
2023-11-01T09:48:06.477Z,11.49
2023-11-01T09:50:39.114Z,11.57
2023-11-01T09:53:06.790Z,11.51
2023-11-01T09:55:34.476Z,11.64
2023-11-01T09:58:02.623Z,11.57
2023-11-01T10:00:30.801Z,11.48
2023-11-01T10:02:58.788Z,11.57
2023-11-01T10:05:26.476Z,11.58
2023-11-01T10:07:55.485Z,11.47
2023-11-01T10:10:23.182Z,11.48
2023-11-01T10:12:50.785Z,11.41
2023-11-01T10:15:21.618Z,11.58
2023-11-01T10:17:52.653Z,11.54
2023-11-01T10:20:26.746Z,11.47
2023-11-01T10:22:55.957Z,11.49
2023-11-01T10:25:23.974Z,11.34
2023-11-01T10:27:52.256Z,11.35
2023-11-01T10:30:21.688Z,11.37
2023-11-01T10:32:56.964Z,11.60
2023-11-01T10:35:25.157Z,11.59
2023-11-01T10:38:01.288Z,11.71
2023-11-01T10:40:30.455Z,11.73
2023-11-01T10:42:59.908Z,11.78
2023-11-01T10:45:27.919Z,11.82
2023-11-01T10:47:56.020Z,11.84
2023-11-01T10:50:24.696Z,11.97
2023-11-01T10:52:52.814Z,11.87
2023-11-01T10:55:23.136Z,11.78
2023-11-01T10:57:52.453Z,11.70
2023-11-01T11:00:25.376Z,11.93
2023-11-01T11:02:55.708Z,12.00
2023-11-01T11:05:28.433Z,11.96
2023-11-01T11:07:58.006Z,11.88
2023-11-01T11:10:27.365Z,12.01
2023-11-01T11:13:26.347Z,12.09
2023-11-01T11:16:00.497Z,12.08
2023-11-01T11:18:30.493Z,12.09
2023-11-01T11:20:59.949Z,12.16
2023-11-01T11:23:34.378Z,12.04
2023-11-01T11:26:04.859Z,12.18
2023-11-01T11:28:43.757Z,12.14
2023-11-01T11:31:14.151Z,12.26
2023-11-01T11:34:13.696Z,12.33
2023-11-01T11:37:05.771Z,12.33
2023-11-01T11:40:08.998Z,12.30
2023-11-01T11:42:50.815Z,12.41
2023-11-01T11:45:29.076Z,12.67
2023-11-01T11:47:57.174Z,12.62
2023-11-01T11:50:25.015Z,12.62
2023-11-01T11:52:52.723Z,12.77
2023-11-01T11:55:41.665Z,12.90
2023-11-01T11:58:10.696Z,12.76
2023-11-01T12:00:38.374Z,12.97
2023-11-01T12:03:06.109Z,12.94
2023-11-01T12:05:35.155Z,13.03
2023-11-01T12:08:04.485Z,12.98
2023-11-01T12:10:32.098Z,13.09
2023-11-01T12:12:59.853Z,13.14
2023-11-01T12:15:30.747Z,12.99
2023-11-01T12:18:12.445Z,12.96
2023-11-01T12:20:40.184Z,13.02
2023-11-01T12:23:08.707Z,12.78
2023-11-01T12:25:36.475Z,12.78
2023-11-01T12:28:04.347Z,12.78
2023-11-01T12:30:34.160Z,12.77
2023-11-01T12:33:01.867Z,12.81
2023-11-01T12:35:29.613Z,12.69
2023-11-01T12:37:57.353Z,12.86
2023-11-01T12:40:27.188Z,12.88
2023-11-01T12:43:08.188Z,12.85
2023-11-01T12:45:37.134Z,12.81
2023-11-01T12:48:06.272Z,12.78
2023-11-01T12:50:36.451Z,12.62
2023-11-01T12:53:04.349Z,12.81
2023-11-01T12:55:34.238Z,12.84
2023-11-01T12:58:02.746Z,12.84
2023-11-01T13:00:31.710Z,12.81
2023-11-01T13:03:03.114Z,12.73
2023-11-01T13:05:31.197Z,12.64
2023-11-01T13:08:01.839Z,12.68
2023-11-01T13:10:30.232Z,12.73
2023-11-01T13:12:57.834Z,12.72
2023-11-01T13:15:26.267Z,12.67
2023-11-01T13:17:54.249Z,12.62
2023-11-01T13:20:23.372Z,12.63
2023-11-01T13:22:52.705Z,12.84
2023-11-01T13:25:21.703Z,12.83
2023-11-01T13:27:49.332Z,12.97
2023-11-01T13:30:17.083Z,13.13
2023-11-01T13:32:44.916Z,13.16
2023-11-01T13:35:12.638Z,13.20
2023-11-01T13:37:41.556Z,13.24
2023-11-01T13:40:11.634Z,13.18
2023-11-01T13:42:39.243Z,13.13
2023-11-01T13:45:08.233Z,13.12
2023-11-01T13:47:36.466Z,12.94
2023-11-01T13:50:04.350Z,12.81
2023-11-01T13:52:31.951Z,13.03
2023-11-01T13:55:01.089Z,13.05
2023-11-01T13:57:30.504Z,13.12
2023-11-01T13:59:58.166Z,13.01
2023-11-01T14:02:25.785Z,13.17
2023-11-01T14:04:53.411Z,13.15
2023-11-01T14:07:21.028Z,13.23
2023-11-01T14:09:49.206Z,13.14
2023-11-01T14:12:18.245Z,13.16
2023-11-01T14:14:45.859Z,13.17
2023-11-01T14:17:16.237Z,13.05
2023-11-01T14:19:44.041Z,13.09
2023-11-01T14:22:11.644Z,13.08
2023-11-01T14:24:39.926Z,13.13
2023-11-01T14:27:07.610Z,13.03
2023-11-01T14:29:36.713Z,12.90
2023-11-01T14:32:06.945Z,12.93
2023-11-01T14:34:34.604Z,12.92
2023-11-01T14:37:02.876Z,12.97
2023-11-01T14:39:30.392Z,12.86
2023-11-01T14:41:58.005Z,12.81
2023-11-01T14:44:25.575Z,12.78
2023-11-01T14:46:54.553Z,12.85
2023-11-01T14:49:22.122Z,12.69
2023-11-01T14:51:49.803Z,12.66
2023-11-01T14:54:17.463Z,12.62
2023-11-01T14:56:46.033Z,12.59
2023-11-01T14:59:13.735Z,12.64
2023-11-01T15:01:42.413Z,12.69
2023-11-01T15:04:11.629Z,12.64
2023-11-01T15:06:39.248Z,12.70
2023-11-01T15:09:07.644Z,12.64
2023-11-01T15:11:35.951Z,12.59
2023-11-01T15:14:03.666Z,12.58
2023-11-01T15:16:32.431Z,12.51
2023-11-01T15:19:00.085Z,12.64
2023-11-01T15:21:29.738Z,12.51
2023-11-01T15:23:58.233Z,12.60
2023-11-01T15:26:26.848Z,12.69
2023-11-01T15:28:54.853Z,12.70
2023-11-01T15:31:22.537Z,12.64
2023-11-01T15:33:50.359Z,12.61
2023-11-01T15:36:19.663Z,12.62
2023-11-01T15:38:48.667Z,12.56
2023-11-01T15:41:16.531Z,12.60
2023-11-01T15:43:44.211Z,12.59
2023-11-01T15:46:11.879Z,12.57
2023-11-01T15:48:42.028Z,12.65
2023-11-01T15:51:12.755Z,12.66
2023-11-01T15:53:40.880Z,12.75
2023-11-01T15:56:11.395Z,12.68
2023-11-01T15:58:39.970Z,12.63
2023-11-01T16:01:07.670Z,12.64
2023-11-01T16:03:35.421Z,12.56
2023-11-01T16:06:03.260Z,12.55
2023-11-01T16:08:30.877Z,12.55
2023-11-01T16:10:58.558Z,12.59
2023-11-01T16:13:28.712Z,12.55
2023-11-01T16:15:56.485Z,12.55
2023-11-01T16:18:24.228Z,12.54
2023-11-01T16:20:51.942Z,12.48
2023-11-01T16:23:19.719Z,12.47
2023-11-01T16:25:47.523Z,12.40
2023-11-01T16:28:15.240Z,12.36
2023-11-01T16:30:44.255Z,12.41
2023-11-01T16:33:11.906Z,12.38
2023-11-01T16:35:39.691Z,12.32
2023-11-01T16:38:06.707Z,12.40
2023-11-01T16:40:34.364Z,12.40
2023-11-01T16:43:02.697Z,12.45
2023-11-01T16:45:30.353Z,12.46
2023-11-01T16:47:59.445Z,12.46
2023-11-01T16:50:27.121Z,12.48
2023-11-01T16:52:55.881Z,12.38
2023-11-01T16:55:23.518Z,12.32
2023-11-01T16:57:51.788Z,12.36
2023-11-01T17:00:19.597Z,12.35
2023-11-01T17:02:50.772Z,12.32
2023-11-01T17:05:20.362Z,12.32
2023-11-01T17:07:48.090Z,12.35
2023-11-01T17:10:15.913Z,12.40
2023-11-01T17:12:43.486Z,12.34
2023-11-01T17:15:11.853Z,12.38
2023-11-01T17:17:42.933Z,12.51
2023-11-01T17:20:12.621Z,12.41
2023-11-01T17:22:56.519Z,12.35
2023-11-01T17:26:12.693Z,12.44
2023-11-01T17:28:40.706Z,12.28
2023-11-01T17:31:11.391Z,12.28
2023-11-01T17:33:40.973Z,12.32
2023-11-01T17:36:21.042Z,12.32
2023-11-01T17:38:50.158Z,12.19
2023-11-01T17:41:57.279Z,12.02
2023-11-01T17:44:27.371Z,11.91
2023-11-01T17:46:56.424Z,11.97
2023-11-01T17:49:57.981Z,11.96
2023-11-01T17:52:28.437Z,11.76
2023-11-01T17:54:58.076Z,11.91
2023-11-01T17:57:25.864Z,11.93
2023-11-01T17:59:53.674Z,12.03
2023-11-01T18:03:04.077Z,11.94
2023-11-01T18:05:36.667Z,11.94
2023-11-01T18:08:10.525Z,11.95
2023-11-01T18:10:42.849Z,11.95
2023-11-01T18:13:22.383Z,12.09
2023-11-01T18:15:51.122Z,11.99
2023-11-01T18:18:42.390Z,12.06
2023-11-01T18:21:11.659Z,12.08
2023-11-01T18:23:41.144Z,12.04
2023-11-01T18:26:17.403Z,12.04
2023-11-01T18:28:45.992Z,12.02
2023-11-01T18:31:22.992Z,11.78
2023-11-01T18:34:01.176Z,12.01
2023-11-01T18:36:30.029Z,11.82
2023-11-01T18:38:58.560Z,11.69
2023-11-01T18:41:29.207Z,11.33
2023-11-01T18:43:56.904Z,11.11
2023-11-01T18:46:25.333Z,10.90
2023-11-01T18:48:56.130Z,10.83
2023-11-01T18:51:43.292Z,10.74
2023-11-01T18:54:11.182Z,10.63
2023-11-01T18:56:41.998Z,10.59
2023-11-01T18:59:10.525Z,10.35
2023-11-01T19:01:41.390Z,10.27
2023-11-01T19:04:10.297Z,10.23
2023-11-01T19:06:39.124Z,10.14
2023-11-01T19:09:06.855Z,10.24
2023-11-01T19:11:34.747Z,10.16
2023-11-01T19:14:03.677Z,10.12
2023-11-01T19:16:31.249Z,10.18
2023-11-01T19:18:58.901Z,10.16
2023-11-01T19:21:26.561Z,10.17
2023-11-01T19:23:54.255Z,10.15
2023-11-01T19:26:22.460Z,10.21
2023-11-01T19:28:50.541Z,10.33
2023-11-01T19:31:21.967Z,10.32
2023-11-01T19:33:53.161Z,10.44
2023-11-01T19:36:21.287Z,10.33
2023-11-01T19:38:49.036Z,10.35
2023-11-01T19:41:17.777Z,10.33
2023-11-01T19:43:45.617Z,10.47
2023-11-01T19:46:13.301Z,10.53
2023-11-01T19:48:43.038Z,10.47
2023-11-01T19:51:11.457Z,10.44
2023-11-01T19:53:39.065Z,10.53
2023-11-01T19:56:06.863Z,10.48
2023-11-01T19:58:34.493Z,10.41
2023-11-01T20:01:02.168Z,10.28
2023-11-01T20:03:29.863Z,10.30
2023-11-01T20:05:59.516Z,10.20
2023-11-01T20:08:27.159Z,10.23
2023-11-01T20:10:54.846Z,10.12
2023-11-01T20:13:22.435Z,10.05
2023-11-01T20:15:50.009Z,10.09
2023-11-01T20:18:17.744Z,10.11
2023-11-01T20:20:45.448Z,9.83
2023-11-01T20:23:15.466Z,9.94
2023-11-01T20:25:43.248Z,9.92
2023-11-01T20:28:18.103Z,9.88
2023-11-01T20:30:46.059Z,9.92
2023-11-01T20:33:13.879Z,9.85
2023-11-01T20:35:41.639Z,9.94
2023-11-01T20:38:09.480Z,9.98
2023-11-01T20:40:38.502Z,10.01
2023-11-01T20:43:06.126Z,10.09
2023-11-01T20:45:38.326Z,10.10
2023-11-01T20:48:08.373Z,10.09
2023-11-01T20:50:36.206Z,10.07
2023-11-01T20:53:04.186Z,10.30
2023-11-01T20:55:31.798Z,10.14
2023-11-01T20:58:00.733Z,10.30
2023-11-01T21:00:28.380Z,10.37
2023-11-01T21:02:56.393Z,10.42
2023-11-01T21:05:24.145Z,10.48
2023-11-01T21:07:52.518Z,10.51
2023-11-01T21:10:20.429Z,10.48
2023-11-01T21:12:48.181Z,10.49
2023-11-01T21:15:17.217Z,10.45
2023-11-01T21:17:45.125Z,10.44
2023-11-01T21:20:13.519Z,10.45
2023-11-01T21:22:41.720Z,10.48
2023-11-01T21:25:10.837Z,10.49
2023-11-01T21:27:38.482Z,10.44
2023-11-01T21:30:07.172Z,10.49
2023-11-01T21:32:36.100Z,10.51
2023-11-01T21:35:04.291Z,10.50
2023-11-01T21:37:31.888Z,10.53
2023-11-01T21:39:59.504Z,10.39
2023-11-01T21:42:27.749Z,10.41
2023-11-01T21:44:55.360Z,10.36
2023-11-01T21:47:25.610Z,10.24
2023-11-01T21:49:54.609Z,10.37
2023-11-01T21:52:23.470Z,10.42
2023-11-01T21:54:52.244Z,10.43
2023-11-01T21:57:24.219Z,10.41
2023-11-01T21:59:51.881Z,10.38
2023-11-01T22:02:28.465Z,10.26
2023-11-01T22:04:57.439Z,10.28
2023-11-01T22:07:25.172Z,10.35
2023-11-01T22:09:56.690Z,10.43
2023-11-01T22:12:24.316Z,10.58
2023-11-01T22:14:52.211Z,10.33
2023-11-01T22:17:37.520Z,10.33
2023-11-01T22:20:09.400Z,10.31
2023-11-01T22:22:51.213Z,10.26
2023-11-01T22:25:27.573Z,10.19
2023-11-01T22:28:00.220Z,10.20
2023-11-01T22:30:29.708Z,10.28
2023-11-01T22:32:57.842Z,10.10
2023-11-01T22:35:36.858Z,10.21
2023-11-01T22:38:04.457Z,10.17
2023-11-01T22:40:33.572Z,10.20
2023-11-01T22:43:01.271Z,10.13
2023-11-01T22:45:28.881Z,10.03
2023-11-01T22:47:56.649Z,10.03
2023-11-01T22:50:24.285Z,10.05
2023-11-01T22:52:53.611Z,10.03
2023-11-01T22:55:21.269Z,10.11
2023-11-01T22:57:48.867Z,10.06
2023-11-01T23:00:29.002Z,10.10
2023-11-01T23:02:58.737Z,9.98
2023-11-01T23:05:26.786Z,9.98
2023-11-01T23:07:57.371Z,10.07
2023-11-01T23:10:25.833Z,9.97
2023-11-01T23:12:53.726Z,9.99
2023-11-01T23:15:21.314Z,9.91
2023-11-01T23:17:50.255Z,10.09
2023-11-01T23:20:22.791Z,10.11
2023-11-01T23:22:53.182Z,10.12
2023-11-01T23:25:27.904Z,10.10
2023-11-01T23:27:59.638Z,10.16
2023-11-01T23:30:41.775Z,10.11
2023-11-01T23:33:09.448Z,10.02
2023-11-01T23:35:45.099Z,10.03
2023-11-01T23:38:14.507Z,9.88
2023-11-01T23:40:45.780Z,9.86
2023-11-01T23:43:14.114Z,9.98
2023-11-01T23:46:17.087Z,10.01
2023-11-01T23:48:45.531Z,10.02
2023-11-01T23:51:13.550Z,10.02
2023-11-01T23:53:42.194Z,10.04
2023-11-01T23:56:23.982Z,9.98
2023-11-01T23:58:53.986Z,10.05
